Time;durP1;ratioP1;P1;durP2;ratioP2;P2;SDS_P1;SDS_P2;PMS_P1;PMS_P2;Temp;Humidity;BMP_temperature;BMP_pressure;BME280_temperature;BME280_humidity;BME280_pressure;Samples;Min_cycle;Max_cycle;Signal;HPM_P1;HPM_P2
2022/04/24 00:01:27;;;;;;;1.85;0.90;;;;;;;;;;5001398;28;20085;-62
2022/04/24 00:03:54;;;;;;;0.55;0.55;;;;;;;;;;5004774;28;20088;-61
2022/04/24 00:06:27;;;;;;;0.82;0.50;;;;;;;;;;5003806;28;20089;-61
2022/04/24 00:08:55;;;;;;;1.30;0.68;;;;;;;;;;5006461;28;20168;-61
2022/04/24 00:11:21;;;;;;;1.58;0.85;;;;;;;;;;5002798;28;20113;-61
2022/04/24 00:13:48;;;;;;;0.83;0.80;;;;;;;;;;5001092;28;20129;-61
2022/04/24 00:16:14;;;;;;;0.50;0.40;;;;;;;;;;5003549;28;20141;-61
2022/04/24 00:18:41;;;;;;;0.80;0.55;;;;;;;;;;5000075;28;20066;-61
2022/04/24 00:21:14;;;;;;;1.30;0.60;;;;;;;;;;5002937;28;20049;-61
2022/04/24 00:23:41;;;;;;;0.82;0.52;;;;;;;;;;5004134;28;20066;-61
2022/04/24 00:26:07;;;;;;;1.70;0.60;;;;;;;;;;4999833;28;20711;-62
2022/04/24 00:28:40;;;;;;;1.30;0.60;;;;;;;;;;5001635;28;20089;-61
2022/04/24 00:31:07;;;;;;;1.10;0.50;;;;;;;;;;5005623;28;20161;-61
2022/04/24 00:33:33;;;;;;;0.98;0.50;;;;;;;;;;4999556;28;20495;-61
2022/04/24 00:36:00;;;;;;;0.47;0.47;;;;;;;;;;5004254;28;20573;-61
2022/04/24 00:38:26;;;;;;;0.85;0.52;;;;;;;;;;4999455;28;20081;-61
2022/04/24 00:40:54;;;;;;;1.17;1.00;;;;;;;;;;5000884;28;20517;-61
2022/04/24 00:43:25;;;;;;;1.17;0.60;;;;;;;;;;5000851;28;20113;-61
2022/04/24 00:45:54;;;;;;;1.23;0.60;;;;;;;;;;5004481;28;20501;-61
2022/04/24 00:48:21;;;;;;;0.70;0.63;;;;;;;;;;5000111;28;20062;-61
2022/04/24 00:51:08;;;;;;;1.83;0.82;;;;;;;;;;4998647;28;20086;-62
2022/04/24 00:53:35;;;;;;;3.90;0.80;;;;;;;;;;4986007;28;20088;-61
2022/04/24 00:56:09;;;;;;;0.70;0.60;;;;;;;;;;5000529;28;20061;-61
2022/04/24 00:58:42;;;;;;;0.50;0.47;;;;;;;;;;5000996;28;20481;-62
2022/04/24 01:01:09;;;;;;;0.57;0.57;;;;;;;;;;4995323;28;20141;-61
2022/04/24 01:03:37;;;;;;;1.45;0.70;;;;;;;;;;5000552;28;20049;-62
2022/04/24 01:06:04;;;;;;;0.45;0.43;;;;;;;;;;5001116;28;20085;-61
2022/04/24 01:08:34;;;;;;;0.82;0.50;;;;;;;;;;4999983;28;20077;-61
2022/04/24 01:11:00;;;;;;;0.55;0.55;;;;;;;;;;5000903;28;20096;-61
2022/04/24 01:13:27;;;;;;;0.80;0.52;;;;;;;;;;5001430;28;20125;-61
2022/04/24 01:15:56;;;;;;;0.75;0.63;;;;;;;;;;5000934;28;20503;-61
2022/04/24 01:18:23;;;;;;;0.60;0.60;;;;;;;;;;5003548;28;20149;-61
2022/04/24 01:20:50;;;;;;;0.70;0.60;;;;;;;;;;4998877;28;20620;-61
2022/04/24 01:23:19;;;;;;;0.50;0.50;;;;;;;;;;5001555;28;20133;-61
2022/04/24 01:25:46;;;;;;;0.40;0.40;;;;;;;;;;4985181;28;20493;-61
2022/04/24 01:28:12;;;;;;;0.95;0.60;;;;;;;;;;4998817;28;20137;-61
2022/04/24 01:30:45;;;;;;;0.55;0.50;;;;;;;;;;4996141;28;20141;-61
2022/04/24 01:33:12;;;;;;;0.60;0.60;;;;;;;;;;4999459;28;20054;-61
2022/04/24 01:35:38;;;;;;;1.95;0.68;;;;;;;;;;4999613;28;20177;-61
2022/04/24 01:38:05;;;;;;;2.83;0.85;;;;;;;;;;5003037;28;20078;-61
2022/04/24 01:40:32;;;;;;;0.68;0.47;;;;;;;;;;5001663;28;20056;-61
2022/04/24 01:42:58;;;;;;;0.80;0.60;;;;;;;;;;4999294;28;20479;-61
2022/04/24 01:45:25;;;;;;;1.27;0.60;;;;;;;;;;4999415;28;20490;-61
2022/04/24 01:47:51;;;;;;;0.77;0.70;;;;;;;;;;4997055;28;20057;-61
2022/04/24 01:50:18;;;;;;;0.60;0.60;;;;;;;;;;5000104;28;20140;-61
2022/04/24 01:52:45;;;;;;;1.10;0.75;;;;;;;;;;5001868;28;20124;-61
2022/04/24 01:55:12;;;;;;;1.23;0.98;;;;;;;;;;5000051;28;20440;-61
2022/04/24 01:57:40;;;;;;;1.73;0.82;;;;;;;;;;4999256;28;20109;-61
2022/04/24 02:00:08;;;;;;;0.55;0.50;;;;;;;;;;5000522;28;20058;-61
2022/04/24 02:02:34;;;;;;;1.10;0.80;;;;;;;;;;4999159;28;20171;-61
2022/04/24 02:05:01;;;;;;;7.22;0.90;;;;;;;;;;4995088;28;20302;-61
2022/04/24 02:07:28;;;;;;;1.15;0.85;;;;;;;;;;4997672;28;20133;-61
2022/04/24 02:09:54;;;;;;;0.85;0.50;;;;;;;;;;4999898;28;20079;-61
2022/04/24 02:12:21;;;;;;;0.77;0.70;;;;;;;;;;5001867;28;20403;-61
2022/04/24 02:14:48;;;;;;;0.90;0.80;;;;;;;;;;4996169;28;20077;-61
2022/04/24 02:17:14;;;;;;;1.17;0.80;;;;;;;;;;4997544;28;20085;-61
2022/04/24 02:19:41;;;;;;;1.38;0.85;;;;;;;;;;5002129;28;20049;-61
2022/04/24 02:22:08;;;;;;;0.95;0.75;;;;;;;;;;4998787;28;20046;-61
2022/04/24 02:24:35;;;;;;;1.90;0.90;;;;;;;;;;5000138;28;20133;-61
2022/04/24 02:27:02;;;;;;;2.42;0.70;;;;;;;;;;4999542;28;20133;-61
2022/04/24 02:29:31;;;;;;;1.27;0.70;;;;;;;;;;4997850;28;20153;-61
2022/04/24 02:31:57;;;;;;;2.35;0.77;;;;;;;;;;4998181;28;20093;-61
2022/04/24 02:34:25;;;;;;;3.75;0.95;;;;;;;;;;4999345;28;20470;-61
2022/04/24 02:36:52;;;;;;;2.03;0.70;;;;;;;;;;4998842;28;20085;-61
2022/04/24 02:39:19;;;;;;;3.60;0.90;;;;;;;;;;4998183;28;20133;-61
2022/04/24 02:41:45;;;;;;;0.57;0.57;;;;;;;;;;4996312;28;20140;-61
2022/04/24 02:44:20;;;;;;;2.08;0.85;;;;;;;;;;4997215;28;20053;-61
2022/04/24 02:46:47;;;;;;;1.48;0.70;;;;;;;;;;4997311;28;20046;-61
2022/04/24 02:49:13;;;;;;;1.00;0.80;;;;;;;;;;5003635;28;20096;-61
2022/04/24 02:51:47;;;;;;;1.52;0.80;;;;;;;;;;5000603;28;20129;-61
2022/04/24 02:54:13;;;;;;;1.02;0.80;;;;;;;;;;4997503;28;20782;-61
2022/04/24 02:56:39;;;;;;;0.57;0.57;;;;;;;;;;4995908;28;20049;-61
2022/04/24 02:59:15;;;;;;;1.75;0.70;;;;;;;;;;4999827;28;20075;-61
2022/04/24 03:01:41;;;;;;;1.85;0.80;;;;;;;;;;4998146;28;20696;-61
2022/04/24 03:04:08;;;;;;;1.37;1.00;;;;;;;;;;4997411;28;20149;-61
2022/04/24 03:06:35;;;;;;;0.67;0.67;;;;;;;;;;4996565;28;20494;-61
2022/04/24 03:09:08;;;;;;;0.85;0.70;;;;;;;;;;4998308;28;20133;-61
2022/04/24 03:11:34;;;;;;;1.25;0.77;;;;;;;;;;4996925;28;20133;-61
2022/04/24 03:14:00;;;;;;;2.05;0.98;;;;;;;;;;4997684;28;20133;-61
2022/04/24 03:16:33;;;;;;;2.22;1.10;;;;;;;;;;4994041;28;20054;-61
2022/04/24 03:19:00;;;;;;;1.15;0.98;;;;;;;;;;4996443;28;20046;-61
2022/04/24 03:21:26;;;;;;;0.95;0.70;;;;;;;;;;4999416;28;20085;-61
2022/04/24 03:23:53;;;;;;;1.80;1.23;;;;;;;;;;5002456;28;20129;-62
2022/04/24 03:26:19;;;;;;;1.00;0.93;;;;;;;;;;4999323;28;20125;-62
2022/04/24 03:28:46;;;;;;;1.60;1.05;;;;;;;;;;4999850;28;20441;-61
2022/04/24 03:31:13;;;;;;;0.90;0.85;;;;;;;;;;4999850;28;20524;-61
2022/04/24 03:33:40;;;;;;;0.85;0.70;;;;;;;;;;4999780;28;20132;-62
2022/04/24 03:36:07;;;;;;;1.20;0.80;;;;;;;;;;4998943;28;20077;-61
2022/04/24 03:38:35;;;;;;;1.58;0.88;;;;;;;;;;4997809;28;20125;-61
2022/04/24 03:41:01;;;;;;;1.65;1.20;;;;;;;;;;4998693;28;20062;-61
2022/04/24 03:43:28;;;;;;;1.80;0.93;;;;;;;;;;5000924;28;20495;-61
2022/04/24 03:45:54;;;;;;;2.83;1.00;;;;;;;;;;5002218;28;20125;-61
2022/04/24 03:48:21;;;;;;;1.00;0.90;;;;;;;;;;5001202;28;20197;-62
2022/04/24 03:50:48;;;;;;;2.77;1.00;;;;;;;;;;4996318;28;20086;-61
2022/04/24 03:53:14;;;;;;;1.30;1.08;;;;;;;;;;4997388;28;20620;-61
2022/04/24 03:55:41;;;;;;;2.30;0.75;;;;;;;;;;4997238;28;20525;-62
2022/04/24 03:58:13;;;;;;;1.35;1.00;;;;;;;;;;5000884;28;20089;-61
2022/04/24 04:00:43;;;;;;;1.05;0.95;;;;;;;;;;4999012;28;20168;-61
2022/04/24 04:03:09;;;;;;;0.70;0.70;;;;;;;;;;4998322;28;20081;-61
2022/04/24 04:05:36;;;;;;;1.88;0.95;;;;;;;;;;5001790;28;20082;-61
2022/04/24 04:08:03;;;;;;;0.85;0.85;;;;;;;;;;4998798;28;20153;-61
2022/04/24 04:10:30;;;;;;;1.80;1.08;;;;;;;;;;4988712;28;20056;-61
2022/04/24 04:12:56;;;;;;;2.03;1.10;;;;;;;;;;4998942;28;20137;-61
2022/04/24 04:15:24;;;;;;;1.80;1.03;;;;;;;;;;5005078;28;20057;-62
2022/04/24 04:17:50;;;;;;;1.67;1.08;;;;;;;;;;5006293;28;20103;-62
2022/04/24 04:20:17;;;;;;;1.90;1.20;;;;;;;;;;5002266;28;20125;-62
2022/04/24 04:22:51;;;;;;;1.40;1.23;;;;;;;;;;5003153;28;20050;-61
2022/04/24 04:25:21;;;;;;;1.58;1.20;;;;;;;;;;5001041;28;20054;-61
2022/04/24 04:27:48;;;;;;;2.00;1.08;;;;;;;;;;4999976;28;20129;-62
2022/04/24 04:30:15;;;;;;;1.27;0.93;;;;;;;;;;5001766;28;20133;-61
2022/04/24 04:32:41;;;;;;;1.67;0.98;;;;;;;;;;4997604;28;20129;-61
2022/04/24 04:35:09;;;;;;;2.25;1.20;;;;;;;;;;4985955;28;20053;-61
2022/04/24 04:37:43;;;;;;;4.22;1.10;;;;;;;;;;4999637;28;20141;-61
2022/04/24 04:40:10;;;;;;;3.53;1.30;;;;;;;;;;5001984;28;20450;-61
2022/04/24 04:42:38;;;;;;;1.75;1.17;;;;;;;;;;5001625;28;20089;-62
2022/04/24 04:45:10;;;;;;;1.65;1.00;;;;;;;;;;5002192;28;20097;-62
2022/04/24 04:47:37;;;;;;;1.48;1.20;;;;;;;;;;4997462;28;20089;-62
2022/04/24 04:50:04;;;;;;;1.58;1.15;;;;;;;;;;4999973;28;20077;-62
2022/04/24 04:52:33;;;;;;;2.75;1.35;;;;;;;;;;4999316;28;20101;-62
2022/04/24 04:54:59;;;;;;;2.25;1.40;;;;;;;;;;4996891;28;20054;-61
2022/04/24 04:57:25;;;;;;;1.20;1.10;;;;;;;;;;5003828;28;20046;-62
2022/04/24 04:59:54;;;;;;;3.47;1.20;;;;;;;;;;5000523;28;20145;-61
2022/04/24 05:02:20;;;;;;;2.07;1.23;;;;;;;;;;5001120;28;20086;-61
2022/04/24 05:04:47;;;;;;;1.83;1.30;;;;;;;;;;5007338;28;20768;-62
2022/04/24 05:07:14;;;;;;;3.42;1.13;;;;;;;;;;4998430;28;20605;-62
2022/04/24 05:09:40;;;;;;;2.03;1.35;;;;;;;;;;4998899;28;20172;-61
2022/04/24 05:12:07;;;;;;;1.85;1.30;;;;;;;;;;5002521;28;20081;-62
2022/04/24 05:14:35;;;;;;;3.05;1.77;;;;;;;;;;4999532;28;20082;-61
2022/04/24 05:17:02;;;;;;;1.00;0.95;;;;;;;;;;5000432;28;20057;-62
2022/04/24 05:19:29;;;;;;;2.22;1.30;;;;;;;;;;4999344;28;20089;-61
2022/04/24 05:21:57;;;;;;;1.38;1.20;;;;;;;;;;5001440;28;20092;-62
2022/04/24 05:24:24;;;;;;;1.88;1.05;;;;;;;;;;5000748;28;20086;-61
2022/04/24 05:26:50;;;;;;;3.42;1.45;;;;;;;;;;5001805;28;20553;-61
2022/04/24 05:29:24;;;;;;;1.25;1.15;;;;;;;;;;5002362;28;20103;-61
2022/04/24 05:31:50;;;;;;;1.33;1.20;;;;;;;;;;4999628;28;20169;-61
2022/04/24 05:34:16;;;;;;;4.80;1.17;;;;;;;;;;4999872;28;20100;-62
2022/04/24 05:36:46;;;;;;;1.95;1.42;;;;;;;;;;5003535;28;20140;-62
2022/04/24 05:39:12;;;;;;;2.15;1.60;;;;;;;;;;5002638;28;20082;-62
2022/04/24 05:41:38;;;;;;;1.63;1.20;;;;;;;;;;5003608;28;20137;-62
2022/04/24 05:44:05;;;;;;;1.65;1.25;;;;;;;;;;4999563;28;20505;-62
2022/04/24 05:46:32;;;;;;;3.42;1.40;;;;;;;;;;5000754;28;20469;-62
2022/04/24 05:49:00;;;;;;;2.45;1.42;;;;;;;;;;4998423;28;20129;-62
2022/04/24 05:51:37;;;;;;;3.22;1.20;;;;;;;;;;5002945;28;20116;-62
2022/04/24 05:54:03;;;;;;;1.48;1.27;;;;;;;;;;5003483;28;20420;-62
2022/04/24 05:56:29;;;;;;;3.75;1.40;;;;;;;;;;5000967;28;20141;-62
2022/04/24 05:58:58;;;;;;;1.83;1.30;;;;;;;;;;5001479;28;20149;-63
2022/04/24 06:01:24;;;;;;;2.28;1.20;;;;;;;;;;4995406;28;20085;-62
2022/04/24 06:03:50;;;;;;;2.08;1.50;;;;;;;;;;5001563;28;20050;-62
2022/04/24 06:06:24;;;;;;;1.88;1.50;;;;;;;;;;4998215;28;20052;-62
2022/04/24 06:08:50;;;;;;;3.45;1.77;;;;;;;;;;4999637;28;20133;-60
2022/04/24 06:11:18;;;;;;;5.05;1.30;;;;;;;;;;4997235;28;20153;-60
2022/04/24 06:13:48;;;;;;;2.40;1.38;;;;;;;;;;4996882;28;20635;-60
2022/04/24 06:16:14;;;;;;;2.00;1.38;;;;;;;;;;5000168;28;20144;-60
2022/04/24 06:18:40;;;;;;;3.97;1.58;;;;;;;;;;4999956;28;20042;-60
2022/04/24 06:21:07;;;;;;;3.73;1.40;;;;;;;;;;5001388;28;20080;-60
2022/04/24 06:23:34;;;;;;;3.13;1.42;;;;;;;;;;4997708;28;20660;-60
2022/04/24 06:26:00;;;;;;;2.60;1.50;;;;;;;;;;4997899;28;20081;-60
2022/04/24 06:28:27;;;;;;;2.30;1.40;;;;;;;;;;4999732;28;20131;-60
2022/04/24 06:30:53;;;;;;;2.13;1.40;;;;;;;;;;4999851;28;20148;-60
2022/04/24 06:33:20;;;;;;;2.63;1.58;;;;;;;;;;4997812;28;20052;-60
2022/04/24 06:35:47;;;;;;;3.10;1.60;;;;;;;;;;5000219;28;20133;-60
2022/04/24 06:38:19;;;;;;;2.78;1.55;;;;;;;;;;4999003;28;20053;-60
2022/04/24 06:40:46;;;;;;;4.80;1.50;;;;;;;;;;5001013;28;20081;-60
2022/04/24 06:43:12;;;;;;;5.78;2.15;;;;;;;;;;4998252;28;20391;-60
2022/04/24 06:45:40;;;;;;;2.47;1.73;;;;;;;;;;5001688;28;20125;-61
2022/04/24 06:48:06;;;;;;;;;;;;;;;;;;4996530;28;20145;-60
2022/04/24 06:50:33;;;;;;;3.53;1.83;;;;;;;;;;4996117;28;20016;-60
2022/04/24 06:53:03;;;;;;;3.15;1.55;;;;;;;;;;4999238;28;20061;-60
2022/04/24 06:55:30;;;;;;;2.25;1.55;;;;;;;;;;4999558;28;20050;-60
2022/04/24 06:57:58;;;;;;;2.78;1.63;;;;;;;;;;4997184;28;20084;-60
2022/04/24 07:00:25;;;;;;;2.83;2.05;;;;;;;;;;4997921;28;20425;-60
2022/04/24 07:02:52;;;;;;;4.80;1.50;;;;;;;;;;4997835;28;20050;-60
2022/04/24 07:05:19;;;;;;;2.05;1.70;;;;;;;;;;4999452;28;20470;-60
2022/04/24 07:07:46;;;;;;;2.53;1.60;;;;;;;;;;4996913;28;20169;-60
2022/04/24 07:10:12;;;;;;;2.63;1.70;;;;;;;;;;4994773;28;20077;-61
2022/04/24 07:12:51;;;;;;;3.55;1.77;;;;;;;;;;4996947;28;20577;-61
2022/04/24 07:15:19;;;;;;;3.80;1.90;;;;;;;;;;4999428;28;20078;-61
2022/04/24 07:17:47;;;;;;;6.25;2.03;;;;;;;;;;4996939;28;20060;-61
2022/04/24 07:20:14;;;;;;;2.53;1.65;;;;;;;;;;4997923;28;20060;-61
2022/04/24 07:22:50;;;;;;;3.75;1.85;;;;;;;;;;4999088;28;20420;-61
2022/04/24 07:25:21;;;;;;;4.65;2.05;;;;;;;;;;5000286;28;20552;-61
2022/04/24 07:27:48;;;;;;;2.83;1.90;;;;;;;;;;4995231;28;20238;-60
2022/04/24 07:30:15;;;;;;;3.15;1.90;;;;;;;;;;4997931;28;20133;-60
2022/04/24 07:32:43;;;;;;;4.40;1.80;;;;;;;;;;5000388;28;20129;-61
2022/04/24 07:35:11;;;;;;;3.92;2.00;;;;;;;;;;5004414;28;20136;-63
2022/04/24 07:37:37;;;;;;;4.43;1.98;;;;;;;;;;4996339;28;20141;-61
2022/04/24 07:40:05;;;;;;;4.00;2.10;;;;;;;;;;5000284;28;20129;-61
2022/04/24 07:42:32;;;;;;;;;;;;;;;;;;4999801;28;20091;-61
2022/04/24 07:44:58;;;;;;;3.08;1.90;;;;;;;;;;5000068;28;20377;-61
2022/04/24 07:47:26;;;;;;;6.18;2.88;;;;;;;;;;5000125;28;20153;-61
2022/04/24 07:49:52;;;;;;;5.32;2.42;;;;;;;;;;5000668;28;20133;-61
2022/04/24 07:52:19;;;;;;;4.40;2.03;;;;;;;;;;5000722;28;20466;-61
2022/04/24 07:54:51;;;;;;;5.65;2.10;;;;;;;;;;5000212;28;20451;-61
2022/04/24 07:57:17;;;;;;;5.10;2.55;;;;;;;;;;4999949;28;20058;-61
2022/04/24 07:59:44;;;;;;;5.32;2.00;;;;;;;;;;5003787;28;20585;-61
2022/04/24 08:02:11;;;;;;;3.17;2.00;;;;;;;;;;5002783;28;20136;-61
2022/04/24 08:04:43;;;;;;;4.15;2.17;;;;;;;;;;5002649;28;20058;-61
2022/04/24 08:07:10;;;;;;;3.70;2.05;;;;;;;;;;5002685;28;20561;-61
2022/04/24 08:09:37;;;;;;;4.72;2.00;;;;;;;;;;5004199;28;20085;-61
2022/04/24 08:12:03;;;;;;;6.32;2.28;;;;;;;;;;5002149;28;20152;-61
2022/04/24 08:14:30;;;;;;;4.20;2.10;;;;;;;;;;5002432;28;20852;-61
2022/04/24 08:16:57;;;;;;;4.20;2.25;;;;;;;;;;4996143;28;20045;-61
2022/04/24 08:19:24;;;;;;;5.03;2.00;;;;;;;;;;5001748;28;20078;-61
2022/04/24 08:21:50;;;;;;;4.75;2.20;;;;;;;;;;5000823;28;20137;-61
2022/04/24 08:24:17;;;;;;;6.50;2.40;;;;;;;;;;5001481;28;20077;-61
2022/04/24 08:26:43;;;;;;;4.63;2.38;;;;;;;;;;5002533;28;20057;-61
2022/04/24 08:29:10;;;;;;;7.72;2.65;;;;;;;;;;5000721;28;20093;-61
2022/04/24 08:31:36;;;;;;;3.40;2.60;;;;;;;;;;4996252;28;20142;-61
2022/04/24 08:34:03;;;;;;;3.70;2.33;;;;;;;;;;4999916;28;20545;-61
2022/04/24 08:36:29;;;;;;;4.90;2.60;;;;;;;;;;5001117;28;20141;-61
2022/04/24 08:38:56;;;;;;;4.38;2.60;;;;;;;;;;5002210;28;20146;-61
2022/04/24 08:41:24;;;;;;;3.63;2.22;;;;;;;;;;5001118;28;20136;-61
2022/04/24 08:43:50;;;;;;;3.85;2.40;;;;;;;;;;5003171;28;20231;-61
2022/04/24 08:46:17;;;;;;;4.23;2.50;;;;;;;;;;4997606;28;20134;-61
2022/04/24 08:48:45;;;;;;;3.50;2.50;;;;;;;;;;5003153;28;20561;-61
2022/04/24 08:51:12;;;;;;;5.78;2.33;;;;;;;;;;5003385;28;20070;-61
2022/04/24 08:53:58;;;;;;;4.30;2.33;;;;;;;;;;5008074;28;20061;-61
2022/04/24 08:56:25;;;;;;;5.83;2.60;;;;;;;;;;5002185;28;20041;-61
2022/04/24 08:58:51;;;;;;;7.00;2.90;;;;;;;;;;4998405;28;20136;-61
2022/04/24 09:01:22;;;;;;;4.90;2.63;;;;;;;;;;5002178;28;20046;-61
2022/04/24 09:03:48;;;;;;;2.80;2.55;;;;;;;;;;5005760;28;20128;-61
2022/04/24 09:06:24;;;;;;;6.78;2.47;;;;;;;;;;5003249;28;20049;-61
2022/04/24 09:08:50;;;;;;;3.80;2.70;;;;;;;;;;4998516;28;20132;-61
2022/04/24 09:11:24;;;;;;;3.90;2.63;;;;;;;;;;4998512;28;20520;-61
2022/04/24 09:16:53;;;;;;;4.60;2.50;;;;;;;;;;5002461;28;20133;-61
2022/04/24 09:19:21;;;;;;;4.57;2.30;;;;;;;;;;5002145;28;20502;-61
2022/04/24 09:21:48;;;;;;;5.00;2.78;;;;;;;;;;5001994;28;20092;-62
2022/04/24 09:24:14;;;;;;;8.00;3.10;;;;;;;;;;4999920;28;20077;-61
2022/04/24 09:26:50;;;;;;;4.28;2.65;;;;;;;;;;4998169;28;20080;-61
2022/04/24 09:29:18;;;;;;;4.38;2.47;;;;;;;;;;5003185;28;20138;-61
2022/04/24 09:31:46;;;;;;;5.72;2.40;;;;;;;;;;5003454;28;20133;-61
2022/04/24 09:34:13;;;;;;;4.43;2.38;;;;;;;;;;5000935;28;20133;-61
2022/04/24 09:36:40;;;;;;;4.18;2.45;;;;;;;;;;4998826;28;20050;-62
2022/04/24 09:39:07;;;;;;;3.33;2.45;;;;;;;;;;5001580;28;20148;-62
2022/04/24 09:41:33;;;;;;;4.72;2.50;;;;;;;;;;5004594;28;20239;-62
2022/04/24 09:44:10;;;;;;;4.13;2.50;;;;;;;;;;5000155;28;20125;-62
2022/04/24 09:46:36;;;;;;;5.03;2.78;;;;;;;;;;4998169;28;20356;-62
2022/04/24 09:49:03;;;;;;;3.33;2.38;;;;;;;;;;4994353;28;20153;-61
2022/04/24 09:51:30;;;;;;;5.57;2.40;;;;;;;;;;4999852;28;20528;-62
2022/04/24 09:53:58;;;;;;;6.07;2.60;;;;;;;;;;4999994;28;20133;-62
2022/04/24 09:56:32;;;;;;;2.72;2.50;;;;;;;;;;5002624;28;20108;-62
2022/04/24 09:58:59;;;;;;;2.63;2.30;;;;;;;;;;5002698;28;20093;-62
2022/04/24 10:01:27;;;;;;;3.55;2.63;;;;;;;;;;5000634;28;20050;-62
2022/04/24 10:03:55;;;;;;;7.10;2.75;;;;;;;;;;5003655;28;20529;-62
2022/04/24 10:06:22;;;;;;;3.55;2.70;;;;;;;;;;4999374;28;20100;-62
2022/04/24 10:08:53;;;;;;;3.67;2.72;;;;;;;;;;4997622;28;20501;-61
2022/04/24 10:11:20;;;;;;;3.08;2.38;;;;;;;;;;4998141;28;20050;-62
2022/04/24 10:13:48;;;;;;;4.32;2.67;;;;;;;;;;4998139;28;20054;-62
2022/04/24 10:16:40;;;;;;;8.18;2.85;;;;;;;;;;4997973;28;20050;-62
2022/04/24 10:19:25;;;;;;;3.90;2.53;;;;;;;;;;5002429;28;20045;-62
2022/04/24 10:22:11;;;;;;;2.92;2.40;;;;;;;;;;5003936;28;20137;-62
2022/04/24 10:24:41;;;;;;;3.25;2.20;;;;;;;;;;4996839;28;20056;-62
2022/04/24 10:27:11;;;;;;;5.15;2.40;;;;;;;;;;4997629;28;20045;-62
2022/04/24 10:29:50;;;;;;;4.03;2.50;;;;;;;;;;5003130;28;20047;-62
2022/04/24 10:32:27;;;;;;;6.05;2.80;;;;;;;;;;4998159;28;20085;-62
2022/04/24 10:34:54;;;;;;;5.93;2.60;;;;;;;;;;5000020;28;20564;-62
2022/04/24 10:37:29;;;;;;;4.20;2.70;;;;;;;;;;5001352;28;20064;-62
2022/04/24 10:39:58;;;;;;;6.47;2.70;;;;;;;;;;5000957;28;20046;-62
2022/04/24 10:42:31;;;;;;;3.17;2.35;;;;;;;;;;4999361;28;20065;-62
2022/04/24 10:45:14;;;;;;;4.35;2.10;;;;;;;;;;5000404;28;20499;-62
2022/04/24 10:47:42;;;;;;;3.38;2.15;;;;;;;;;;4998453;28;20054;-62
2022/04/24 10:50:11;;;;;;;3.75;2.42;;;;;;;;;;5001321;28;20506;-62
2022/04/24 10:52:41;;;;;;;2.93;2.20;;;;;;;;;;4997664;28;20134;-62
2022/04/24 10:55:08;;;;;;;3.22;2.20;;;;;;;;;;4996990;28;20138;-62
2022/04/24 10:57:43;;;;;;;3.22;2.20;;;;;;;;;;4998179;28;20137;-62
2022/04/24 11:00:19;;;;;;;4.18;2.08;;;;;;;;;;5000376;28;20061;-62
2022/04/24 11:02:47;;;;;;;3.97;2.00;;;;;;;;;;4997120;28;20054;-63
2022/04/24 11:05:13;;;;;;;;;;;;;;;;;;4997728;28;20052;-63
2022/04/24 11:07:40;;;;;;;4.57;1.90;;;;;;;;;;4994960;28;20016;-63
2022/04/24 11:10:10;;;;;;;2.53;2.08;;;;;;;;;;4997010;28;20050;-63
2022/04/24 11:12:38;;;;;;;5.18;2.20;;;;;;;;;;4999746;28;20056;-63
2022/04/24 11:15:06;;;;;;;3.97;2.30;;;;;;;;;;5000610;28;20127;-63
2022/04/24 11:17:34;;;;;;;3.35;1.60;;;;;;;;;;5000691;28;20065;-63
2022/04/24 11:20:03;;;;;;;5.97;1.90;;;;;;;;;;5005342;28;20134;-63
2022/04/24 11:22:31;;;;;;;2.50;1.98;;;;;;;;;;5001864;28;20054;-63
2022/04/24 11:24:59;;;;;;;2.00;1.80;;;;;;;;;;5000729;28;20137;-63
2022/04/24 11:27:26;;;;;;;2.85;2.03;;;;;;;;;;5000166;28;20093;-63
2022/04/24 11:29:52;;;;;;;4.45;2.10;;;;;;;;;;5002082;28;20085;-64
2022/04/24 11:32:26;;;;;;;2.22;1.63;;;;;;;;;;5001608;28;20143;-63
2022/04/24 11:34:52;;;;;;;6.37;2.10;;;;;;;;;;5006060;28;20046;-63
2022/04/24 11:37:21;;;;;;;4.10;2.03;;;;;;;;;;5005809;28;20421;-63
2022/04/24 11:39:48;;;;;;;2.08;1.75;;;;;;;;;;5003408;28;20125;-63
2022/04/24 11:42:15;;;;;;;2.45;1.73;;;;;;;;;;4989238;28;20104;-63
2022/04/24 11:50:52;;;;;;;6.45;1.52;;;;;;;;;;4890046;29;20319;-63
2022/04/24 11:53:45;;;;;;;1.63;1.52;;;;;;;;;;4993297;28;20062;-63
2022/04/24 11:56:12;;;;;;;2.33;1.70;;;;;;;;;;5005298;28;20149;-63
2022/04/24 11:58:45;;;;;;;2.60;1.48;;;;;;;;;;5003110;28;20345;-63
2022/04/24 12:01:13;;;;;;;3.03;1.60;;;;;;;;;;5004470;28;20073;-63
2022/04/24 12:03:44;;;;;;;2.10;1.40;;;;;;;;;;4986915;28;20050;-63
2022/04/24 12:06:11;;;;;;;3.55;1.60;;;;;;;;;;4998838;28;20050;-63
2022/04/24 12:08:49;;;;;;;4.38;1.70;;;;;;;;;;4999697;28;20137;-63
2022/04/24 12:11:23;;;;;;;3.80;1.80;;;;;;;;;;4999773;28;20145;-63
2022/04/24 12:14:24;;;;;;;2.67;1.85;;;;;;;;;;5003342;28;20088;-63
2022/04/24 12:16:51;;;;;;;3.28;1.75;;;;;;;;;;4939001;28;20129;-63
2022/04/24 12:19:18;;;;;;;2.08;1.45;;;;;;;;;;5005505;28;20137;-63
2022/04/24 12:21:46;;;;;;;4.35;1.60;;;;;;;;;;5003405;28;20143;-62
2022/04/24 12:24:12;;;;;;;3.40;1.50;;;;;;;;;;5003615;28;20050;-63
2022/04/24 12:26:47;;;;;;;2.92;1.65;;;;;;;;;;5005788;28;20153;-63
2022/04/24 12:29:15;;;;;;;2.90;1.80;;;;;;;;;;5003014;28;20125;-63
2022/04/24 12:31:42;;;;;;;2.90;1.80;;;;;;;;;;5001305;28;20514;-63
2022/04/24 12:34:10;;;;;;;3.60;1.63;;;;;;;;;;5001428;28;20132;-63
2022/04/24 12:36:46;;;;;;;4.47;1.83;;;;;;;;;;5001043;28;20062;-63
2022/04/24 12:39:14;;;;;;;3.15;1.80;;;;;;;;;;4998557;28;20104;-63
2022/04/24 12:41:40;;;;;;;2.30;1.60;;;;;;;;;;5001173;28;20077;-63
2022/04/24 12:44:07;;;;;;;2.83;1.67;;;;;;;;;;5002377;28;20656;-63
2022/04/24 12:46:36;;;;;;;2.35;1.50;;;;;;;;;;4999639;28;20129;-63
2022/04/24 12:49:04;;;;;;;6.90;1.50;;;;;;;;;;5000072;28;20053;-63
2022/04/24 12:51:30;;;;;;;1.75;1.50;;;;;;;;;;5002522;28;20162;-63
2022/04/24 12:53:58;;;;;;;1.65;1.55;;;;;;;;;;5001602;28;20148;-63
2022/04/24 12:56:25;;;;;;;5.25;1.65;;;;;;;;;;4999950;28;20078;-63
2022/04/24 12:58:51;;;;;;;1.60;1.50;;;;;;;;;;4996349;28;20134;-62
2022/04/24 13:01:25;;;;;;;1.48;1.23;;;;;;;;;;5000693;28;20050;-63
2022/04/24 13:03:54;;;;;;;3.80;1.23;;;;;;;;;;5000151;28;20105;-63
2022/04/24 13:06:25;;;;;;;4.68;1.35;;;;;;;;;;4997985;28;20073;-63
2022/04/24 13:08:53;;;;;;;2.90;1.55;;;;;;;;;;4984077;28;20137;-63
2022/04/24 13:11:23;;;;;;;4.90;1.60;;;;;;;;;;4998985;28;20049;-63
2022/04/24 13:13:50;;;;;;;1.85;1.50;;;;;;;;;;5002100;28;20153;-63
2022/04/24 13:19:11;;;;;;;4.32;1.27;;;;;;;;;;4998802;28;20124;-63
2022/04/24 13:21:46;;;;;;;9.02;1.65;;;;;;;;;;4998955;28;20506;-63
2022/04/24 13:24:13;;;;;;;1.48;1.38;;;;;;;;;;5003811;28;20073;-63
2022/04/24 13:26:40;;;;;;;1.88;1.35;;;;;;;;;;4996802;28;20133;-63
2022/04/24 13:29:07;;;;;;;2.28;1.52;;;;;;;;;;4999464;28;20084;-64
2022/04/24 13:31:33;;;;;;;2.90;1.33;;;;;;;;;;5003354;28;20165;-63
2022/04/24 13:34:00;;;;;;;1.63;1.20;;;;;;;;;;5000020;28;20474;-64
2022/04/24 13:36:26;;;;;;;1.63;1.20;;;;;;;;;;5000655;28;20558;-63
2022/04/24 13:38:53;;;;;;;2.25;1.17;;;;;;;;;;4998751;28;20088;-63
2022/04/24 13:41:26;;;;;;;1.35;1.10;;;;;;;;;;4996370;28;20523;-63
2022/04/24 13:43:53;;;;;;;2.17;1.48;;;;;;;;;;4998058;28;20137;-63
2022/04/24 13:46:19;;;;;;;4.70;1.40;;;;;;;;;;4998505;28;20482;-63
2022/04/24 13:48:46;;;;;;;0.98;0.98;;;;;;;;;;5002130;28;20050;-63
2022/04/24 13:51:15;;;;;;;1.95;1.20;;;;;;;;;;4998178;28;20129;-63
2022/04/24 13:53:43;;;;;;;2.13;1.25;;;;;;;;;;4999097;28;20052;-63
2022/04/24 13:56:11;;;;;;;1.15;0.88;;;;;;;;;;5001010;28;20052;-63
2022/04/24 13:58:37;;;;;;;1.88;1.38;;;;;;;;;;5001638;28;20077;-63
2022/04/24 14:01:04;;;;;;;1.52;1.10;;;;;;;;;;5000844;28;20142;-63
2022/04/24 14:03:31;;;;;;;;;;;;;;;;;;5000172;28;20050;-63
2022/04/24 14:05:57;;;;;;;2.13;1.38;;;;;;;;;;5001095;28;20393;-63
2022/04/24 14:08:27;;;;;;;3.63;1.33;;;;;;;;;;5001022;28;20571;-63
2022/04/24 14:10:56;;;;;;;2.35;1.30;;;;;;;;;;5000364;28;20112;-63
2022/04/24 14:13:23;;;;;;;2.17;1.20;;;;;;;;;;5002582;28;20054;-63
2022/04/24 14:15:50;;;;;;;2.97;1.30;;;;;;;;;;5000353;28;20050;-63
2022/04/24 14:18:17;;;;;;;2.88;1.10;;;;;;;;;;4996180;28;20317;-63
2022/04/24 14:20:44;;;;;;;2.40;1.10;;;;;;;;;;4996674;28;20157;-63
2022/04/24 14:23:15;;;;;;;1.13;1.00;;;;;;;;;;4998374;28;20136;-62
2022/04/24 14:25:43;;;;;;;1.40;1.30;;;;;;;;;;4997569;28;20142;-63
2022/04/24 14:28:09;;;;;;;1.35;0.98;;;;;;;;;;4998537;28;20513;-63
2022/04/24 14:30:36;;;;;;;9.32;1.15;;;;;;;;;;5000001;28;20845;-63
2022/04/24 14:33:02;;;;;;;0.70;0.70;;;;;;;;;;4998980;28;20089;-63
2022/04/24 14:35:29;;;;;;;1.08;0.80;;;;;;;;;;4997294;28;20618;-63
2022/04/24 14:37:55;;;;;;;0.95;0.90;;;;;;;;;;4997543;28;20137;-63
2022/04/24 14:40:29;;;;;;;1.63;1.10;;;;;;;;;;4998156;28;20054;-63
2022/04/24 14:42:56;;;;;;;1.10;0.98;;;;;;;;;;4997197;28;20061;-63
2022/04/24 14:55:44;;;;;;;0.95;0.90;;;;;;;;;;4997670;28;20164;-62
2022/04/24 14:56:33;;;;;;;3.25;1.00;;;;;;;;;;4999546;28;20137;-62
2022/04/24 14:59:00;;;;;;;3.92;1.05;;;;;;;;;;4996960;28;20049;-62
2022/04/24 15:01:27;;;;;;;;;;;;;;;;;;4999823;28;20061;-62
2022/04/24 15:03:54;;;;;;;1.25;1.00;;;;;;;;;;4996511;28;20390;-62
2022/04/24 15:06:26;;;;;;;1.92;0.90;;;;;;;;;;4998277;28;20056;-62
2022/04/24 15:08:53;;;;;;;1.10;1.00;;;;;;;;;;4993680;28;20140;-63
2022/04/24 15:11:19;;;;;;;1.17;1.00;;;;;;;;;;4998233;28;20049;-62
2022/04/24 15:13:47;;;;;;;1.42;1.10;;;;;;;;;;4994251;28;20129;-62